Погода Поцепна неделю

Тверская область, Россия

19 - 25 мая
  • 19мая
    Сегодня
    +8°
    +21°
    Ясно и безоблачно
    ВремяПогодаТемператураВлажностьДавлениеВетер, м/сВероятность осадков
    00:00Ясно и безоблачно+7°C75 %748 мм2.2 м/с2 %
    03:00Ясно и безоблачно+5°C69 %748 мм2.3 м/с2 %
    06:00Ясно и безоблачно+8°C73 %748 мм2.7 м/с2 %
    09:00Ясно и безоблачно+16°C57 %749 мм2.5 м/с2 %
    12:00Ясно и безоблачно+19°C44 %748 мм2.8 м/с2 %
    15:00Ясно и безоблачно+20°C44 %747 мм2.9 м/с2 %
    18:00Ясно и безоблачно+20°C46 %746 мм2.7 м/с2 %
    21:00Ясно и безоблачно+13°C69 %745 мм2.2 м/с2 %
  • 20мая
    Понедельник
    +8°
    +22°
    Ясно и безоблачно
    ВремяПогодаТемператураВлажностьДавлениеВетер, м/сВероятность осадков
    00:00Ясно и безоблачно+10°C62 %745 мм4.0 м/с2 %
    03:00Ясно и безоблачно+9°C76 %745 мм3.2 м/с2 %
    06:00Практически безоблачно+11°C77 %745 мм3.3 м/с2 %
    09:00Ясно и безоблачно+17°C62 %745 мм2.9 м/с2 %
    12:00Практически безоблачно+22°C46 %745 мм2.8 м/с2 %
    15:00Ясно и безоблачно+22°C36 %744 мм4.5 м/с8 %
    18:00Небольшая облачность+21°C42 %744 мм3.6 м/с15 %
    21:00Облачно с прояснениями+15°C73 %744 мм2.2 м/с14 %
  • 21мая
    Вторник
    +7°
    +21°
    Небольшая облачность
    ВремяПогодаТемператураВлажностьДавлениеВетер, м/сВероятность осадков
    00:00Практически безоблачно+11°C85 %744 мм2.3 м/с3 %
    03:00Практически безоблачно+9°C96 %745 мм1.7 м/с5 %
    06:00Небольшая облачность+11°C87 %746 мм2.6 м/с10 %
    09:00Практически безоблачно+16°C63 %747 мм2.3 м/с7 %
    12:00Облачно с прояснениями+19°C51 %748 мм2.4 м/с6 %
    15:00Небольшая облачность+19°C45 %747 мм2.1 м/с11 %
    18:00Небольшая облачность+19°C40 %747 мм3.8 м/с2 %
    21:00Практически безоблачно+12°C52 %748 мм2.1 м/с2 %
  • 22мая
    Среда
    +2°
    +16°
    Ясно и безоблачно
    ВремяПогодаТемператураВлажностьДавлениеВетер, м/сВероятность осадков
    00:00Практически безоблачно+10°C53 %748 мм0.9 м/с2 %
    03:00Ясно и безоблачно+8°C62 %749 мм3.6 м/с2 %
    06:00Ясно и безоблачно+9°C72 %750 мм3.3 м/с2 %
    09:00Ясно и безоблачно+14°C54 %751 мм4.1 м/с2 %
    12:00Ясно и безоблачно+16°C39 %751 мм4.5 м/с2 %
    15:00Ясно и безоблачно+15°C37 %751 мм4.7 м/с2 %
    18:00Ясно и безоблачно+12°C34 %752 мм4.9 м/с3 %
    21:00Ясно и безоблачно+9°C41 %752 мм3.3 м/с3 %
  • 23мая
    Четверг
    +2°
    +15°
    Ясно и безоблачно
    ВремяПогодаТемператураВлажностьДавлениеВетер, м/сВероятность осадков
    00:00Ясно и безоблачно+6°C44 %753 мм3.6 м/с2 %
    03:00Ясно и безоблачно+3°C54 %754 мм2.4 м/с2 %
    06:00Ясно и безоблачно+5°C63 %755 мм2.3 м/с2 %
    09:00Ясно и безоблачно+12°C38 %756 мм2.5 м/с3 %
    12:00Ясно и безоблачно+14°C35 %756 мм2.4 м/с3 %
    15:00Ясно и безоблачно+14°C32 %755 мм1.8 м/с2 %
    18:00Практически безоблачно+14°C33 %754 мм1.7 м/с2 %
    21:00Ясно и безоблачно+8°C55 %754 мм2.0 м/с4 %
Мы используем cookies
Соглашаюсь